sensor_id;sensor_type;location;lat;lon;timestamp;pressure;altitude;pressure_sealevel;temperature;humidity
11329;BME280;5719;42.714;23.732;2023-04-24T00:01:26;94241.56;;;9.27;85.03
11329;BME280;5719;42.714;23.732;2023-04-24T00:03:54;94242.78;;;9.34;85.17
11329;BME280;5719;42.714;23.732;2023-04-24T00:06:26;94238.22;;;9.38;85.95
11329;BME280;5719;42.714;23.732;2023-04-24T00:08:58;94238.94;;;9.40;86.12
11329;BME280;5719;42.714;23.732;2023-04-24T00:11:25;94234.22;;;9.34;85.94
11329;BME280;5719;42.714;23.732;2023-04-24T00:13:52;94228.97;;;9.35;85.02
11329;BME280;5719;42.714;23.732;2023-04-24T00:16:19;94228.91;;;9.24;85.90
11329;BME280;5719;42.714;23.732;2023-04-24T00:18:46;94227.03;;;9.26;86.32
11329;BME280;5719;42.714;23.732;2023-04-24T00:21:13;94228.00;;;9.13;87.15
11329;BME280;5719;42.714;23.732;2023-04-24T00:23:41;94221.47;;;9.20;86.80
11329;BME280;5719;42.714;23.732;2023-04-24T00:26:09;94214.13;;;9.26;86.26
11329;BME280;5719;42.714;23.732;2023-04-24T00:28:36;94214.66;;;9.19;86.05
11329;BME280;5719;42.714;23.732;2023-04-24T00:31:02;94212.91;;;9.19;86.02
11329;BME280;5719;42.714;23.732;2023-04-24T00:33:29;94208.69;;;9.18;84.68
11329;BME280;5719;42.714;23.732;2023-04-24T00:35:56;94210.47;;;9.18;85.08
11329;BME280;5719;42.714;23.732;2023-04-24T00:38:23;94210.66;;;9.15;84.73
11329;BME280;5719;42.714;23.732;2023-04-24T00:40:52;94212.63;;;9.11;84.99
11329;BME280;5719;42.714;23.732;2023-04-24T00:43:19;94212.75;;;9.10;85.02
11329;BME280;5719;42.714;23.732;2023-04-24T00:45:46;94204.41;;;9.06;84.81
11329;BME280;5719;42.714;23.732;2023-04-24T00:48:14;94197.91;;;9.01;85.80
11329;BME280;5719;42.714;23.732;2023-04-24T00:50:42;94193.91;;;8.97;85.32
11329;BME280;5719;42.714;23.732;2023-04-24T00:53:08;94189.56;;;8.97;85.49
11329;BME280;5719;42.714;23.732;2023-04-24T00:55:35;94183.72;;;8.95;85.08
11329;BME280;5719;42.714;23.732;2023-04-24T00:58:05;94184.72;;;8.93;84.95
11329;BME280;5719;42.714;23.732;2023-04-24T01:00:32;94183.19;;;8.90;85.34
11329;BME280;5719;42.714;23.732;2023-04-24T01:02:59;94176.72;;;8.84;85.21
11329;BME280;5719;42.714;23.732;2023-04-24T01:05:28;94187.75;;;8.86;85.74
11329;BME280;5719;42.714;23.732;2023-04-24T01:07:55;94188.78;;;8.84;86.02
11329;BME280;5719;42.714;23.732;2023-04-24T01:10:24;94176.31;;;8.78;85.33
11329;BME280;5719;42.714;23.732;2023-04-24T01:12:52;94187.66;;;8.75;85.95
11329;BME280;5719;42.714;23.732;2023-04-24T01:15:21;94184.38;;;8.73;85.85
11329;BME280;5719;42.714;23.732;2023-04-24T01:17:47;94189.84;;;8.69;87.24
11329;BME280;5719;42.714;23.732;2023-04-24T01:20:16;94179.63;;;8.67;87.73
11329;BME280;5719;42.714;23.732;2023-04-24T01:22:45;94183.03;;;8.68;87.81
11329;BME280;5719;42.714;23.732;2023-04-24T01:25:11;94185.81;;;8.65;87.70
11329;BME280;5719;42.714;23.732;2023-04-24T01:27:38;94182.44;;;8.64;88.02
11329;BME280;5719;42.714;23.732;2023-04-24T01:30:07;94179.03;;;8.64;88.54
11329;BME280;5719;42.714;23.732;2023-04-24T01:32:34;94178.09;;;8.65;87.64
11329;BME280;5719;42.714;23.732;2023-04-24T01:35:02;94179.63;;;8.67;88.38
11329;BME280;5719;42.714;23.732;2023-04-24T01:37:29;94176.44;;;8.64;87.33
11329;BME280;5719;42.714;23.732;2023-04-24T01:39:59;94175.84;;;8.60;87.37
11329;BME280;5719;42.714;23.732;2023-04-24T01:42:26;94169.06;;;8.59;87.31
11329;BME280;5719;42.714;23.732;2023-04-24T01:44:53;94166.66;;;8.56;85.89
11329;BME280;5719;42.714;23.732;2023-04-24T01:47:21;94173.69;;;8.54;86.57
11329;BME280;5719;42.714;23.732;2023-04-24T01:49:48;94179.38;;;8.47;86.75
11329;BME280;5719;42.714;23.732;2023-04-24T01:52:15;94172.78;;;8.43;86.32
11329;BME280;5719;42.714;23.732;2023-04-24T01:54:43;94166.31;;;8.37;86.57
11329;BME280;5719;42.714;23.732;2023-04-24T01:57:11;94169.09;;;8.34;86.87
11329;BME280;5719;42.714;23.732;2023-04-24T01:59:38;94172.03;;;8.28;86.04
11329;BME280;5719;42.714;23.732;2023-04-24T02:02:05;94169.25;;;8.18;86.42
11329;BME280;5719;42.714;23.732;2023-04-24T02:04:32;94176.38;;;8.15;86.66
11329;BME280;5719;42.714;23.732;2023-04-24T02:06:59;94177.28;;;8.14;87.01
11329;BME280;5719;42.714;23.732;2023-04-24T02:09:26;94171.75;;;8.07;87.39
11329;BME280;5719;42.714;23.732;2023-04-24T02:11:52;94173.47;;;8.07;87.22
11329;BME280;5719;42.714;23.732;2023-04-24T02:14:21;94165.66;;;8.08;87.20
11329;BME280;5719;42.714;23.732;2023-04-24T02:16:47;94166.06;;;8.02;87.13
11329;BME280;5719;42.714;23.732;2023-04-24T02:19:14;94146.41;;;7.88;87.35
11329;BME280;5719;42.714;23.732;2023-04-24T02:21:41;94149.41;;;7.82;88.64
11329;BME280;5719;42.714;23.732;2023-04-24T02:24:08;94143.19;;;7.72;88.26
11329;BME280;5719;42.714;23.732;2023-04-24T02:26:35;94145.34;;;7.66;88.92
11329;BME280;5719;42.714;23.732;2023-04-24T02:29:02;94142.69;;;7.67;89.22
11329;BME280;5719;42.714;23.732;2023-04-24T02:31:30;94134.22;;;7.53;89.28
11329;BME280;5719;42.714;23.732;2023-04-24T02:33:57;94138.44;;;7.54;88.88
11329;BME280;5719;42.714;23.732;2023-04-24T02:36:24;94130.75;;;7.54;89.75
11329;BME280;5719;42.714;23.732;2023-04-24T02:38:50;94131.75;;;7.51;88.80
11329;BME280;5719;42.714;23.732;2023-04-24T02:41:17;94127.31;;;7.40;88.48
11329;BME280;5719;42.714;23.732;2023-04-24T02:43:45;94121.34;;;7.40;89.19
11329;BME280;5719;42.714;23.732;2023-04-24T02:46:11;94122.66;;;6.94;91.87
11329;BME280;5719;42.714;23.732;2023-04-24T02:48:40;94125.81;;;6.70;95.14
11329;BME280;5719;42.714;23.732;2023-04-24T02:51:07;94116.09;;;6.75;93.34
11329;BME280;5719;42.714;23.732;2023-04-24T02:53:33;94109.81;;;6.94;93.30
11329;BME280;5719;42.714;23.732;2023-04-24T02:56:00;94119.44;;;6.63;94.18
11329;BME280;5719;42.714;23.732;2023-04-24T02:58:27;94109.19;;;6.49;95.64
11329;BME280;5719;42.714;23.732;2023-04-24T03:00:54;94116.06;;;6.63;94.77
11329;BME280;5719;42.714;23.732;2023-04-24T03:03:22;94111.16;;;6.72;93.69
11329;BME280;5719;42.714;23.732;2023-04-24T03:05:50;94108.13;;;6.80;93.95
11329;BME280;5719;42.714;23.732;2023-04-24T03:08:17;94110.41;;;6.84;92.76
11329;BME280;5719;42.714;23.732;2023-04-24T03:10:44;94117.66;;;6.78;93.19
11329;BME280;5719;42.714;23.732;2023-04-24T03:13:11;94114.78;;;6.82;93.36
11329;BME280;5719;42.714;23.732;2023-04-24T03:15:38;94119.72;;;6.85;93.60
11329;BME280;5719;42.714;23.732;2023-04-24T03:18:05;94117.72;;;6.90;92.97
11329;BME280;5719;42.714;23.732;2023-04-24T03:20:31;94113.00;;;6.97;93.04
11329;BME280;5719;42.714;23.732;2023-04-24T03:23:00;94122.16;;;7.01;93.01
11329;BME280;5719;42.714;23.732;2023-04-24T03:25:26;94113.34;;;7.05;93.38
11329;BME280;5719;42.714;23.732;2023-04-24T03:27:53;94114.69;;;7.11;91.87
11329;BME280;5719;42.714;23.732;2023-04-24T03:30:20;94107.09;;;7.09;91.78
11329;BME280;5719;42.714;23.732;2023-04-24T03:32:47;94115.50;;;7.11;91.79
11329;BME280;5719;42.714;23.732;2023-04-24T03:35:14;94109.75;;;7.08;91.41
11329;BME280;5719;42.714;23.732;2023-04-24T03:37:41;94116.94;;;7.03;92.14
11329;BME280;5719;42.714;23.732;2023-04-24T03:40:10;94111.06;;;7.01;92.51
11329;BME280;5719;42.714;23.732;2023-04-24T03:42:37;94113.13;;;6.96;91.91
11329;BME280;5719;42.714;23.732;2023-04-24T03:45:05;94112.13;;;6.84;93.24
11329;BME280;5719;42.714;23.732;2023-04-24T03:47:32;94109.72;;;6.68;96.56
11329;BME280;5719;42.714;23.732;2023-04-24T03:49:59;94118.66;;;6.75;96.05
11329;BME280;5719;42.714;23.732;2023-04-24T03:52:26;94124.44;;;6.79;95.22
11329;BME280;5719;42.714;23.732;2023-04-24T03:54:52;94119.44;;;6.90;94.99
11329;BME280;5719;42.714;23.732;2023-04-24T03:57:22;94123.06;;;7.00;94.16
11329;BME280;5719;42.714;23.732;2023-04-24T03:59:49;94119.09;;;7.09;94.27
11329;BME280;5719;42.714;23.732;2023-04-24T04:02:16;94125.69;;;7.13;94.75
11329;BME280;5719;42.714;23.732;2023-04-24T04:04:43;94126.03;;;7.21;95.63
11329;BME280;5719;42.714;23.732;2023-04-24T04:07:10;94129.31;;;7.23;94.92
11329;BME280;5719;42.714;23.732;2023-04-24T04:09:38;94130.78;;;7.27;93.57
11329;BME280;5719;42.714;23.732;2023-04-24T04:12:05;94126.69;;;7.37;93.41
11329;BME280;5719;42.714;23.732;2023-04-24T04:14:33;94138.81;;;7.35;95.19
11329;BME280;5719;42.714;23.732;2023-04-24T04:17:00;94124.03;;;7.38;95.53
11329;BME280;5719;42.714;23.732;2023-04-24T04:19:27;94132.56;;;7.52;96.05
11329;BME280;5719;42.714;23.732;2023-04-24T04:21:54;94136.88;;;7.51;96.49
11329;BME280;5719;42.714;23.732;2023-04-24T04:24:21;94128.16;;;7.54;95.96
11329;BME280;5719;42.714;23.732;2023-04-24T04:26:49;94125.09;;;7.61;95.98
11329;BME280;5719;42.714;23.732;2023-04-24T04:29:16;94128.28;;;7.65;98.38
11329;BME280;5719;42.714;23.732;2023-04-24T04:31:44;94131.16;;;7.73;98.84
11329;BME280;5719;42.714;23.732;2023-04-24T04:34:11;94126.84;;;7.86;99.20
11329;BME280;5719;42.714;23.732;2023-04-24T04:36:39;94127.03;;;7.96;97.75
11329;BME280;5719;42.714;23.732;2023-04-24T04:39:06;94128.38;;;7.88;99.03
11329;BME280;5719;42.714;23.732;2023-04-24T04:41:33;94126.34;;;7.94;99.73
11329;BME280;5719;42.714;23.732;2023-04-24T04:44:01;94129.41;;;8.11;100.00
11329;BME280;5719;42.714;23.732;2023-04-24T04:46:30;94127.44;;;8.27;100.00
11329;BME280;5719;42.714;23.732;2023-04-24T04:49:01;94125.50;;;8.44;100.00
11329;BME280;5719;42.714;23.732;2023-04-24T04:51:28;94126.88;;;8.60;100.00
11329;BME280;5719;42.714;23.732;2023-04-24T04:53:55;94127.56;;;8.75;100.00
11329;BME280;5719;42.714;23.732;2023-04-24T04:56:22;94120.03;;;8.84;100.00
11329;BME280;5719;42.714;23.732;2023-04-24T04:58:49;94125.44;;;8.93;100.00
11329;BME280;5719;42.714;23.732;2023-04-24T05:01:16;94122.50;;;9.10;98.71
11329;BME280;5719;42.714;23.732;2023-04-24T05:03:43;94129.50;;;9.31;96.61
11329;BME280;5719;42.714;23.732;2023-04-24T05:06:11;94122.91;;;9.62;91.46
11329;BME280;5719;42.714;23.732;2023-04-24T05:08:38;94113.81;;;9.92;89.46
11329;BME280;5719;42.714;23.732;2023-04-24T05:11:05;94122.13;;;10.19;87.25
11329;BME280;5719;42.714;23.732;2023-04-24T05:13:32;94118.13;;;10.48;85.53
11329;BME280;5719;42.714;23.732;2023-04-24T05:15:59;94119.97;;;10.68;83.26
11329;BME280;5719;42.714;23.732;2023-04-24T05:18:26;94121.59;;;10.92;81.00
11329;BME280;5719;42.714;23.732;2023-04-24T05:20:53;94120.47;;;11.16;80.93
11329;BME280;5719;42.714;23.732;2023-04-24T05:23:21;94120.16;;;11.30;80.98
11329;BME280;5719;42.714;23.732;2023-04-24T05:25:48;94119.25;;;11.31;82.57
11329;BME280;5719;42.714;23.732;2023-04-24T05:28:15;94131.56;;;11.39;84.56
11329;BME280;5719;42.714;23.732;2023-04-24T05:30:42;94134.59;;;11.44;84.50
11329;BME280;5719;42.714;23.732;2023-04-24T05:33:09;94134.78;;;11.52;86.25
11329;BME280;5719;42.714;23.732;2023-04-24T05:35:36;94138.63;;;11.37;87.40
11329;BME280;5719;42.714;23.732;2023-04-24T05:38:02;94140.84;;;11.62;86.58
11329;BME280;5719;42.714;23.732;2023-04-24T05:40:31;94142.25;;;11.77;85.37
11329;BME280;5719;42.714;23.732;2023-04-24T05:42:57;94136.06;;;11.90;81.36
11329;BME280;5719;42.714;23.732;2023-04-24T05:45:24;94139.91;;;11.95;75.98
11329;BME280;5719;42.714;23.732;2023-04-24T05:47:52;94130.56;;;12.04;75.86
11329;BME280;5719;42.714;23.732;2023-04-24T05:50:19;94137.81;;;12.10;76.14
11329;BME280;5719;42.714;23.732;2023-04-24T05:52:46;94138.25;;;12.15;75.71
11329;BME280;5719;42.714;23.732;2023-04-24T05:55:13;94130.94;;;12.20;74.69
11329;BME280;5719;42.714;23.732;2023-04-24T05:57:44;94133.94;;;12.46;73.28
11329;BME280;5719;42.714;23.732;2023-04-24T06:00:12;94133.16;;;12.64;71.80
11329;BME280;5719;42.714;23.732;2023-04-24T06:02:39;94137.88;;;12.80;71.46
11329;BME280;5719;42.714;23.732;2023-04-24T06:05:06;94131.91;;;12.89;69.22
11329;BME280;5719;42.714;23.732;2023-04-24T06:07:33;94127.16;;;13.04;70.91
11329;BME280;5719;42.714;23.732;2023-04-24T06:10:01;94132.00;;;13.18;67.94
11329;BME280;5719;42.714;23.732;2023-04-24T06:12:28;94128.44;;;13.29;67.98
11329;BME280;5719;42.714;23.732;2023-04-24T06:14:56;94130.94;;;13.40;69.27
11329;BME280;5719;42.714;23.732;2023-04-24T06:17:23;94127.63;;;13.28;68.79
11329;BME280;5719;42.714;23.732;2023-04-24T06:19:50;94131.19;;;13.46;66.88
11329;BME280;5719;42.714;23.732;2023-04-24T06:22:16;94123.25;;;13.67;65.44
11329;BME280;5719;42.714;23.732;2023-04-24T06:25:02;94124.66;;;13.81;64.35
11329;BME280;5719;42.714;23.732;2023-04-24T06:27:29;94128.59;;;13.94;63.25
11329;BME280;5719;42.714;23.732;2023-04-24T06:29:58;94124.75;;;13.98;62.92
11329;BME280;5719;42.714;23.732;2023-04-24T06:32:26;94129.25;;;14.06;64.04
11329;BME280;5719;42.714;23.732;2023-04-24T06:34:53;94126.63;;;14.15;63.30
11329;BME280;5719;42.714;23.732;2023-04-24T06:37:20;94130.56;;;14.29;63.62
11329;BME280;5719;42.714;23.732;2023-04-24T06:39:47;94125.66;;;14.26;61.46
11329;BME280;5719;42.714;23.732;2023-04-24T06:42:14;94114.97;;;14.39;62.20
11329;BME280;5719;42.714;23.732;2023-04-24T06:44:41;94122.84;;;14.56;63.12
11329;BME280;5719;42.714;23.732;2023-04-24T06:47:10;94112.56;;;14.92;60.53
11329;BME280;5719;42.714;23.732;2023-04-24T06:49:40;94116.88;;;15.46;59.32
11329;BME280;5719;42.714;23.732;2023-04-24T06:52:07;94114.25;;;15.73;55.52
11329;BME280;5719;42.714;23.732;2023-04-24T06:54:34;94122.94;;;16.25;54.85
11329;BME280;5719;42.714;23.732;2023-04-24T06:57:02;94122.59;;;16.72;51.61
11329;BME280;5719;42.714;23.732;2023-04-24T06:59:30;94119.31;;;17.03;51.35
11329;BME280;5719;42.714;23.732;2023-04-24T07:01:57;94116.75;;;17.28;50.19
11329;BME280;5719;42.714;23.732;2023-04-24T07:04:26;94114.44;;;17.58;50.03
11329;BME280;5719;42.714;23.732;2023-04-24T07:06:53;94116.09;;;17.84;49.78
11329;BME280;5719;42.714;23.732;2023-04-24T07:09:21;94119.84;;;17.73;47.03
11329;BME280;5719;42.714;23.732;2023-04-24T07:11:49;94122.63;;;17.96;46.94
11329;BME280;5719;42.714;23.732;2023-04-24T07:14:17;94118.69;;;18.24;47.08
11329;BME280;5719;42.714;23.732;2023-04-24T07:16:44;94112.13;;;18.44;47.39
11329;BME280;5719;42.714;23.732;2023-04-24T07:19:11;94115.88;;;18.66;46.53
11329;BME280;5719;42.714;23.732;2023-04-24T07:21:40;94112.00;;;19.01;45.42
11329;BME280;5719;42.714;23.732;2023-04-24T07:24:07;94114.56;;;19.09;44.97
11329;BME280;5719;42.714;23.732;2023-04-24T07:26:37;94112.63;;;19.42;44.69
11329;BME280;5719;42.714;23.732;2023-04-24T07:29:04;94112.59;;;18.72;45.53
11329;BME280;5719;42.714;23.732;2023-04-24T07:31:31;94114.59;;;18.38;46.60
11329;BME280;5719;42.714;23.732;2023-04-24T07:33:58;94110.06;;;17.25;47.85
11329;BME280;5719;42.714;23.732;2023-04-24T07:36:25;94113.94;;;17.79;48.35
11329;BME280;5719;42.714;23.732;2023-04-24T07:38:55;94108.22;;;18.24;48.02
11329;BME280;5719;42.714;23.732;2023-04-24T07:41:22;94111.97;;;18.54;47.87
11329;BME280;5719;42.714;23.732;2023-04-24T07:43:49;94112.63;;;18.56;46.44
11329;BME280;5719;42.714;23.732;2023-04-24T07:46:18;94106.22;;;18.67;46.50
11329;BME280;5719;42.714;23.732;2023-04-24T07:48:46;94110.47;;;18.76;45.86
11329;BME280;5719;42.714;23.732;2023-04-24T07:51:13;94108.22;;;18.56;45.29
11329;BME280;5719;42.714;23.732;2023-04-24T07:53:41;94102.84;;;17.77;48.00
11329;BME280;5719;42.714;23.732;2023-04-24T07:56:09;94099.56;;;17.75;48.10
11329;BME280;5719;42.714;23.732;2023-04-24T07:58:37;94098.59;;;18.17;47.49
11329;BME280;5719;42.714;23.732;2023-04-24T08:01:04;94101.16;;;18.49;47.09
11329;BME280;5719;42.714;23.732;2023-04-24T08:03:31;94097.38;;;18.76;46.68
11329;BME280;5719;42.714;23.732;2023-04-24T08:05:59;94095.72;;;18.75;46.02
11329;BME280;5719;42.714;23.732;2023-04-24T08:08:26;94102.78;;;18.66;46.50
11329;BME280;5719;42.714;23.732;2023-04-24T08:10:53;94105.94;;;18.53;46.69
11329;BME280;5719;42.714;23.732;2023-04-24T08:13:21;94101.28;;;18.72;47.26
11329;BME280;5719;42.714;23.732;2023-04-24T08:15:48;94094.31;;;18.95;47.67
11329;BME280;5719;42.714;23.732;2023-04-24T08:18:15;94091.66;;;19.42;45.86
11329;BME280;5719;42.714;23.732;2023-04-24T08:20:42;94093.09;;;19.98;46.27
11329;BME280;5719;42.714;23.732;2023-04-24T08:23:10;94096.50;;;20.59;44.07
11329;BME280;5719;42.714;23.732;2023-04-24T08:25:37;94086.63;;;20.90;42.18
11329;BME280;5719;42.714;23.732;2023-04-24T08:28:06;94098.75;;;20.32;42.44
11329;BME280;5719;42.714;23.732;2023-04-24T08:30:36;94095.44;;;20.82;42.66
11329;BME280;5719;42.714;23.732;2023-04-24T08:33:04;94083.75;;;21.14;41.31
11329;BME280;5719;42.714;23.732;2023-04-24T08:35:31;94080.06;;;21.44;43.53
11329;BME280;5719;42.714;23.732;2023-04-24T08:37:58;94074.00;;;21.86;40.67
11329;BME280;5719;42.714;23.732;2023-04-24T08:40:28;94074.22;;;22.06;40.37
11329;BME280;5719;42.714;23.732;2023-04-24T08:42:56;94076.84;;;21.13;42.02
11329;BME280;5719;42.714;23.732;2023-04-24T08:45:23;94066.44;;;21.56;42.07
11329;BME280;5719;42.714;23.732;2023-04-24T08:47:53;94066.44;;;21.98;41.17
11329;BME280;5719;42.714;23.732;2023-04-24T08:50:21;94069.44;;;22.16;39.98
11329;BME280;5719;42.714;23.732;2023-04-24T08:52:50;94065.63;;;22.46;40.27
11329;BME280;5719;42.714;23.732;2023-04-24T08:55:19;94053.88;;;21.58;42.92
11329;BME280;5719;42.714;23.732;2023-04-24T08:57:50;94058.78;;;21.82;41.11
11329;BME280;5719;42.714;23.732;2023-04-24T09:00:19;94058.97;;;22.51;42.02
11329;BME280;5719;42.714;23.732;2023-04-24T09:02:48;94056.19;;;22.93;41.12
11329;BME280;5719;42.714;23.732;2023-04-24T09:05:18;94051.56;;;23.42;38.32
11329;BME280;5719;42.714;23.732;2023-04-24T09:07:53;94053.44;;;23.68;37.60
11329;BME280;5719;42.714;23.732;2023-04-24T09:10:21;94051.03;;;23.67;37.39
11329;BME280;5719;42.714;23.732;2023-04-24T09:12:50;94055.75;;;23.30;37.38
11329;BME280;5719;42.714;23.732;2023-04-24T09:15:17;94042.09;;;23.14;37.43
11329;BME280;5719;42.714;23.732;2023-04-24T09:17:45;94042.22;;;22.99;38.48
11329;BME280;5719;42.714;23.732;2023-04-24T09:20:13;94036.47;;;23.23;36.89
11329;BME280;5719;42.714;23.732;2023-04-24T09:22:42;94038.06;;;23.24;38.03
11329;BME280;5719;42.714;23.732;2023-04-24T09:25:09;94029.31;;;23.78;37.90
11329;BME280;5719;42.714;23.732;2023-04-24T09:27:42;94029.94;;;24.00;37.68
11329;BME280;5719;42.714;23.732;2023-04-24T09:30:11;94029.13;;;23.99;37.13
11329;BME280;5719;42.714;23.732;2023-04-24T09:32:38;94014.53;;;24.16;37.68
11329;BME280;5719;42.714;23.732;2023-04-24T09:35:07;94015.34;;;24.36;36.32
11329;BME280;5719;42.714;23.732;2023-04-24T09:37:38;94018.41;;;24.33;35.81
11329;BME280;5719;42.714;23.732;2023-04-24T09:40:14;94011.06;;;24.16;35.86
11329;BME280;5719;42.714;23.732;2023-04-24T09:42:43;94012.69;;;24.43;35.07
11329;BME280;5719;42.714;23.732;2023-04-24T09:45:11;94005.31;;;24.65;35.76
11329;BME280;5719;42.714;23.732;2023-04-24T09:47:38;94002.03;;;24.82;34.78
11329;BME280;5719;42.714;23.732;2023-04-24T09:50:13;93991.81;;;25.06;35.35
11329;BME280;5719;42.714;23.732;2023-04-24T09:52:42;94004.41;;;25.04;33.98
11329;BME280;5719;42.714;23.732;2023-04-24T09:55:16;93999.31;;;25.09;33.94
11329;BME280;5719;42.714;23.732;2023-04-24T09:57:48;93986.03;;;24.58;33.61
11329;BME280;5719;42.714;23.732;2023-04-24T10:00:19;93987.81;;;24.77;34.33
11329;BME280;5719;42.714;23.732;2023-04-24T10:02:50;93977.78;;;25.36;33.33
11329;BME280;5719;42.714;23.732;2023-04-24T10:05:17;93989.47;;;24.65;33.31
11329;BME280;5719;42.714;23.732;2023-04-24T10:07:44;93985.88;;;24.33;33.90
11329;BME280;5719;42.714;23.732;2023-04-24T10:10:12;93981.19;;;24.09;33.68
11329;BME280;5719;42.714;23.732;2023-04-24T10:12:40;93983.16;;;22.80;37.06
11329;BME280;5719;42.714;23.732;2023-04-24T10:15:10;93975.84;;;21.65;37.52
11329;BME280;5719;42.714;23.732;2023-04-24T10:17:39;93974.50;;;22.24;37.80
11329;BME280;5719;42.714;23.732;2023-04-24T10:20:09;93975.28;;;21.90;38.70
11329;BME280;5719;42.714;23.732;2023-04-24T10:22:37;93974.66;;;22.16;37.39
11329;BME280;5719;42.714;23.732;2023-04-24T10:25:05;93976.09;;;22.53;36.95
11329;BME280;5719;42.714;23.732;2023-04-24T10:27:34;93969.63;;;21.72;39.61
11329;BME280;5719;42.714;23.732;2023-04-24T10:30:03;93971.75;;;22.39;38.11
11329;BME280;5719;42.714;23.732;2023-04-24T10:32:32;93970.53;;;22.69;36.71
11329;BME280;5719;42.714;23.732;2023-04-24T10:34:59;93968.25;;;23.14;35.82
11329;BME280;5719;42.714;23.732;2023-04-24T10:37:26;93972.47;;;22.61;36.82
11329;BME280;5719;42.714;23.732;2023-04-24T10:39:53;93969.53;;;23.31;37.03
11329;BME280;5719;42.714;23.732;2023-04-24T10:42:21;93974.25;;;22.88;37.27
11329;BME280;5719;42.714;23.732;2023-04-24T10:44:48;93968.63;;;22.98;36.49
11329;BME280;5719;42.714;23.732;2023-04-24T10:47:17;93963.72;;;23.88;36.24
11329;BME280;5719;42.714;23.732;2023-04-24T10:49:44;93956.47;;;24.87;35.11
11329;BME280;5719;42.714;23.732;2023-04-24T10:52:11;93964.22;;;24.75;32.62
11329;BME280;5719;42.714;23.732;2023-04-24T10:54:42;93955.59;;;25.75;33.90
11329;BME280;5719;42.714;23.732;2023-04-24T10:57:27;93954.78;;;25.06;33.06
11329;BME280;5719;42.714;23.732;2023-04-24T11:00:14;93946.00;;;25.43;32.74
11329;BME280;5719;42.714;23.732;2023-04-24T11:02:42;93948.59;;;25.56;31.32
11329;BME280;5719;42.714;23.732;2023-04-24T11:05:15;93944.97;;;25.13;32.31
11329;BME280;5719;42.714;23.732;2023-04-24T11:08:11;93932.28;;;25.21;31.79
11329;BME280;5719;42.714;23.732;2023-04-24T11:10:39;93929.81;;;25.89;31.50
11329;BME280;5719;42.714;23.732;2023-04-24T11:13:07;93929.28;;;26.48;30.57
11329;BME280;5719;42.714;23.732;2023-04-24T11:15:35;93926.03;;;26.83;30.24
11329;BME280;5719;42.714;23.732;2023-04-24T11:18:03;93916.81;;;26.30;31.35
11329;BME280;5719;42.714;23.732;2023-04-24T11:20:30;93913.66;;;26.22;30.87
11329;BME280;5719;42.714;23.732;2023-04-24T11:23:03;93907.81;;;27.04;29.14
11329;BME280;5719;42.714;23.732;2023-04-24T11:25:32;93905.16;;;27.64;28.50
11329;BME280;5719;42.714;23.732;2023-04-24T11:28:05;93906.25;;;28.21;28.69
11329;BME280;5719;42.714;23.732;2023-04-24T11:30:33;93887.94;;;28.71;27.41
11329;BME280;5719;42.714;23.732;2023-04-24T11:33:05;93886.88;;;28.84;28.28
11329;BME280;5719;42.714;23.732;2023-04-24T11:35:35;93895.75;;;28.26;27.90
11329;BME280;5719;42.714;23.732;2023-04-24T11:38:06;93888.31;;;27.82;28.67
11329;BME280;5719;42.714;23.732;2023-04-24T11:40:34;93891.19;;;27.68;29.73
11329;BME280;5719;42.714;23.732;2023-04-24T11:43:01;93881.94;;;27.59;29.16
11329;BME280;5719;42.714;23.732;2023-04-24T11:45:29;93888.59;;;26.72;30.37
11329;BME280;5719;42.714;23.732;2023-04-24T11:47:57;93874.56;;;26.54;30.00
11329;BME280;5719;42.714;23.732;2023-04-24T11:50:26;93867.88;;;26.33;31.13
11329;BME280;5719;42.714;23.732;2023-04-24T11:52:55;93872.53;;;26.67;31.39
11329;BME280;5719;42.714;23.732;2023-04-24T11:55:24;93870.25;;;26.71;29.55
11329;BME280;5719;42.714;23.732;2023-04-24T11:57:53;93869.03;;;25.94;31.39
11329;BME280;5719;42.714;23.732;2023-04-24T12:00:24;93857.44;;;25.14;31.65
11329;BME280;5719;42.714;23.732;2023-04-24T12:02:51;93849.78;;;25.06;33.00
11329;BME280;5719;42.714;23.732;2023-04-24T12:05:23;93856.22;;;24.08;34.04
11329;BME280;5719;42.714;23.732;2023-04-24T12:07:53;93852.41;;;23.98;34.04
11329;BME280;5719;42.714;23.732;2023-04-24T12:10:21;93867.25;;;23.39;35.34
11329;BME280;5719;42.714;23.732;2023-04-24T12:12:49;93864.84;;;23.44;35.27
11329;BME280;5719;42.714;23.732;2023-04-24T12:15:17;93859.88;;;22.76;35.84
11329;BME280;5719;42.714;23.732;2023-04-24T12:17:44;93851.41;;;22.39;37.13
11329;BME280;5719;42.714;23.732;2023-04-24T12:31:51;93884.00;;;18.86;58.29
11329;BME280;5719;42.714;23.732;2023-04-24T12:34:18;93854.06;;;18.27;57.88
11329;BME280;5719;42.714;23.732;2023-04-24T12:36:46;93862.06;;;18.26;60.07
11329;BME280;5719;42.714;23.732;2023-04-24T12:39:16;93864.75;;;18.48;63.78
11329;BME280;5719;42.714;23.732;2023-04-24T12:41:54;93871.66;;;18.72;72.71
11329;BME280;5719;42.714;23.732;2023-04-24T12:44:29;93876.38;;;19.60;80.49
11329;BME280;5719;42.714;23.732;2023-04-24T12:46:57;93892.56;;;19.63;69.49
11329;BME280;5719;42.714;23.732;2023-04-24T12:49:24;93887.50;;;19.76;68.50
11329;BME280;5719;42.714;23.732;2023-04-24T12:51:51;93878.66;;;19.40;62.42
11329;BME280;5719;42.714;23.732;2023-04-24T12:54:18;93878.44;;;19.64;58.74
11329;BME280;5719;42.714;23.732;2023-04-24T12:56:45;93880.38;;;20.14;53.76
11329;BME280;5719;42.714;23.732;2023-04-24T12:59:12;93884.53;;;20.08;53.47
11329;BME280;5719;42.714;23.732;2023-04-24T13:01:39;93886.41;;;20.29;55.64
11329;BME280;5719;42.714;23.732;2023-04-24T13:04:07;93883.59;;;20.16;52.33
11329;BME280;5719;42.714;23.732;2023-04-24T13:06:34;93885.72;;;20.06;54.65
11329;BME280;5719;42.714;23.732;2023-04-24T13:09:01;93884.50;;;20.23;52.44
11329;BME280;5719;42.714;23.732;2023-04-24T13:11:28;93879.00;;;20.33;50.58
11329;BME280;5719;42.714;23.732;2023-04-24T13:13:56;93872.38;;;20.07;50.32
11329;BME280;5719;42.714;23.732;2023-04-24T13:16:22;93872.38;;;20.37;51.53
11329;BME280;5719;42.714;23.732;2023-04-24T13:18:49;93880.06;;;20.53;48.78
11329;BME280;5719;42.714;23.732;2023-04-24T13:21:18;93876.44;;;20.54;47.75